Oriana — ZCDU9 — position and weather

sailwx.info

Track history (hours):
 
Tides and Currents Weather Stations Pressure Air Temp Water Temp Dewpoint Dewpoint Depression Visibility Wind Speed Wind Dir Waves Ship Positions

Oriana (Bermuda)

Last reported at 2017-May-27 08:14 UTC. Time now 2017-May-28 12:18 UTC.
Position N 36°49' W 023°19'.

Length 261 m; beam 32.2 m; draft 8.2 m.

Type: Ship. MMSI: 310529000.

Date/timePositionNaut miles runAvg speedWind from/ knotsBaromVisibWave heightAir tempDewpointWater temp
2017-May-27 08:14N 36°49' W 023°19'417.9
2017-May-27 08:00N 36°52' W 023°23'918.1
2017-May-27 07:30N 36°57' W 023°32'816.3
2017-May-27 07:01N 37°03' W 023°40'714.6
2017-May-27 06:30N 37°07' W 023°47'815.1
2017-May-27 06:00N 37°12' W 023°54'815.1
2017-May-27 05:30N 37°17' W 024°01'714.9
2017-May-27 05:01N 37°22' W 024°09'815.0
2017-May-27 04:30N 37°27' W 024°16'815.1
2017-May-27 04:00N 37°32' W 024°23'713.6
2017-May-27 03:31N 37°36' W 024°30'815.6
2017-May-27 03:00N 37°41' W 024°37'815.7
2017-May-27 02:31N 37°46' W 024°45'815.7
2017-May-27 02:00N 37°51' W 024°53'815.9
2017-May-27 01:30N 37°56' W 025°01'815.7
2017-May-27 01:01N 37°60' W 025°09'815.8
2017-May-27 00:30N 38°04' W 025°18'816.0
2017-May-27 00:00N 38°07' W 025°27'816.0
2017-May-26 23:31N 38°11' W 025°36'816.2
2017-May-26 23:00N 38°15' W 025°45'815.6
2017-May-26 22:31N 38°18' W 025°54'815.9
2017-May-26 22:00N 38°22' W 026°03'715.0
2017-May-26 21:31N 38°25' W 026°12'714.9
2017-May-26 21:00N 38°28' W 026°20'714.9
2017-May-26 20:30N 38°32' W 026°29'815.0
2017-May-26 20:00N 38°35' W 026°37'815.4
2017-May-26 19:30N 38°39' W 026°46'714.7
2017-May-26 19:00N 38°42' W 026°55'612.6
2017-May-26 18:30N 38°43' W 027°02'1 0.2
2017-May-26 15:39N 38°43' W 027°03'0 0.0
2017-May-26 15:21N 38°43' W 027°03'0 0.0
2017-May-26 08:14N 38°43' W 027°03'0 0.9
2017-May-26 08:00N 38°43' W 027°03'5 9.1
2017-May-26 07:30N 38°43' W 026°57'612.5
2017-May-26 07:01N 38°38' W 026°54'713.2
2017-May-26 06:30N 38°32' W 026°49'611.4
2017-May-26 06:00N 38°28' W 026°44'510.5
2017-May-26 05:30N 38°24' W 026°40'510.8
2017-May-26 05:00N 38°19' W 026°36'510.4
2017-May-26 04:30N 38°15' W 026°32'510.0
2017-May-26 04:00N 38°11' W 026°29'510.5
2017-May-26 03:31N 38°07' W 026°25'611.3
2017-May-26 03:00N 38°02' W 026°21'511.0
2017-May-26 02:30N 37°58' W 026°17'611.1
2017-May-26 02:00N 37°53' W 026°13'510.9
2017-May-26 01:30N 37°49' W 026°09'611.7
2017-May-26 01:00N 37°46' W 026°02'611.7
2017-May-26 00:30N 37°44' W 025°55'510.9
2017-May-26 00:00N 37°42' W 025°49'510.3
2017-May-25 23:30N 37°40' W 025°43'5 9.1
2017-May-25 23:00N 37°43' W 025°39'1 2.5
2017-May-25 22:29N 37°44' W 025°40'0 0.0
2017-May-25 21:59N 37°44' W 025°40'0 0.0
2017-May-25 21:29N 37°44' W 025°40'0 0.0
2017-May-25 20:59N 37°44' W 025°40'0 0.0
2017-May-25 20:29N 37°44' W 025°40'0 0.0
2017-May-25 19:59N 37°44' W 025°40'0 0.0
2017-May-25 19:29N 37°44' W 025°40'0 0.0
2017-May-25 18:59N 37°44' W 025°40'0 0.0
2017-May-25 18:29N 37°44' W 025°40'0 0.0
2017-May-25 17:59N 37°44' W 025°40'0 0.0
2017-May-25 17:29N 37°44' W 025°40'0 0.0
2017-May-25 16:59N 37°44' W 025°40'0 0.0
2017-May-25 16:29N 37°44' W 025°40'0 0.0
2017-May-25 15:59N 37°44' W 025°40'0 0.0
2017-May-25 15:29N 37°44' W 025°40'0 0.0
2017-May-25 14:59N 37°44' W 025°40'0 0.0
2017-May-25 14:29N 37°44' W 025°40'0 0.0
2017-May-25 13:29N 37°44' W 025°40'0 0.0
2017-May-25 12:59N 37°44' W 025°40'0 0.0
2017-May-25 12:29N 37°44' W 025°40'0 0.0
2017-May-25 11:59N 37°44' W 025°40'0 0.0
2017-May-25 11:29N 37°44' W 025°40'0 0.0
2017-May-25 10:59N 37°44' W 025°40'0 0.0
2017-May-25 10:29N 37°44' W 025°40'0 0.0
2017-May-25 09:59N 37°44' W 025°40'0 0.0
2017-May-25 09:29N 37°44' W 025°40'0 0.0
2017-May-25 08:59N 37°44' W 025°40'0 0.4
2017-May-25 08:30N 37°44' W 025°39'2 3.2
2017-May-25 08:00N 37°43' W 025°39'4 9.0
2017-May-25 07:30N 37°40' W 025°34'612.2
2017-May-25 07:00N 37°40' W 025°27'612.6
2017-May-25 06:30N 37°40' W 025°19'612.2
2017-May-25 06:00N 37°40' W 025°11'611.4
2017-May-25 05:30N 37°44' W 025°05'611.6
2017-May-25 05:00N 37°47' W 024°59'611.8
2017-May-25 04:30N 37°51' W 024°54'611.7
2017-May-25 04:00N 37°55' W 024°48'611.7
2017-May-25 03:30N 37°58' W 024°42'611.5
2017-May-25 03:00N 38°02' W 024°36'611.9
2017-May-25 02:30N 38°06' W 024°31'611.7
2017-May-25 01:59N 38°10' W 024°25'612.0
2017-May-25 01:27N 38°14' W 024°18'512.0
2017-May-25 01:00N 38°17' W 024°13'8213.7
2017-May-24 19:00N 39°06' W 022°48'36915.4 260 / 111017.310.8 18.515.618.0
2017-May-23 19:00N 43°00' W 016°30'13719.6 100 / 51021.910.8 18.415.017.0
2017-May-23 12:00N 44°24' W 014°00'6315.7 080 / 91024.410.8 16.014.315.0
2017-May-23 08:00N 45°06' W 012°54'21215.2 100 / 51024.610.8 14.914.214.0
2017-May-22 18:00N 47°18' W 008°54'1156.4 220 / 111020.710.8 14.712.714.0
2017-May-22 17:48N 47°28' W 008°48'7915.1
2017-May-22 12:33N 48°18' W 007°17'2814.3
2017-May-22 10:35N 48°37' W 006°45'514.9
2017-May-22 10:14N 48°39' W 006°38'615.1
2017-May-22 09:49N 48°44' W 006°31'615.1
2017-May-22 09:26N 48°47' W 006°24'915.4
2017-May-22 08:49N 48°53' W 006°13'515.8
2017-May-22 08:30N 48°56' W 006°07'1015.8
2017-May-22 07:53N 49°02' W 005°54'1718.6
2017-May-22 07:00N 49°06' W 005°30'519.1 210 / 121013.410.8 14.412.213.0
2017-May-22 06:43N 49°11' W 005°29'2316.4
2017-May-22 05:19N 49°24' W 005°00'715.7
2017-May-22 04:53N 49°28' W 004°51'1115.5
2017-May-22 04:11N 49°33' W 004°37'515.2
2017-May-22 03:53N 49°36' W 004°31'615.0
2017-May-22 03:30N 49°39' W 004°24'814.9
2017-May-22 03:00N 49°42' W 004°13'191.7
2017-May-22 03:00N 49°42' W 004°12'713.7 120 / 301013.810.8 14.412.213.0
2017-May-22 02:28N 49°46' W 004°03'714.7
2017-May-22 02:00N 49°49' W 003°54'714.8
2017-May-22 01:30N 49°53' W 003°44'815.1
2017-May-22 01:00N 49°57' W 003°34'815.5
2017-May-22 00:30N 50°01' W 003°23'816.0
2017-May-22 00:00N 50°04' W 003°12'816.5
2017-May-21 23:30N 50°07' W 002°60'817.0
2017-May-21 23:00N 50°09' W 002°47'917.3
2017-May-21 22:31N 50°13' W 002°35'917.7
2017-May-21 22:00N 50°16' W 002°22'917.9
2017-May-21 21:30N 50°18' W 002°08'917.7
2017-May-21 21:00N 50°20' W 001°55'917.4
2017-May-21 20:30N 50°23' W 001°42'816.9
2017-May-21 20:00N 50°26' W 001°29'816.4
2017-May-21 19:30N 50°28' W 001°17'815.8
2017-May-21 19:00N 50°31' W 001°05'7533.7
2017-May-21 19:00N 50°30' W 000°54'714.7 080 / 281019.810.8 14.710.513.0
2017-May-21 18:31N 50°36' W 000°59'612.1
2017-May-21 18:00N 50°42' W 000°59'612.6
2017-May-21 17:30N 50°45' W 001°07'715.0
2017-May-21 17:00N 50°47' W 001°19'4 8.0
2017-May-21 16:30N 50°51' W 001°21'4 8.3
2017-May-21 16:00N 50°54' W 001°26'0 0.2
2017-May-21 15:28N 50°54' W 001°26'0 0.0
2017-May-21 14:58N 50°54' W 001°26'0 0.0
2017-May-21 14:28N 50°54' W 001°26'0 0.0
2017-May-21 13:28N 50°54' W 001°26'0 0.0
2017-May-21 12:58N 50°54' W 001°26'0 0.0
2017-May-21 12:28N 50°54' W 001°26'0 0.0
2017-May-21 11:58N 50°54' W 001°26'0 0.0
2017-May-21 11:28N 50°54' W 001°26'0 0.0
2017-May-21 10:58N 50°54' W 001°26'0 0.0
2017-May-21 10:29N 50°54' W 001°26'0 0.0
2017-May-21 09:59N 50°54' W 001°26'0 0.0
2017-May-21 09:29N 50°54' W 001°26'0 0.0
2017-May-21 08:56N 50°54' W 001°26'0 0.0
2017-May-21 08:26N 50°54' W 001°26'0 0.0
2017-May-21 07:59N 50°54' W 001°26'0 0.0
2017-May-21 07:29N 50°54' W 001°26'0 0.0
2017-May-21 06:59N 50°54' W 001°26'0 0.0
2017-May-21 06:26N 50°54' W 001°26'0 0.0
2017-May-21 06:00N 50°54' W 001°26'0 0.6
2017-May-21 05:30N 50°54' W 001°26'3 6.0
2017-May-21 05:01N 50°52' W 001°23'5 9.8
2017-May-21 04:31N 50°49' W 001°17'510.3
2017-May-21 04:01N 50°46' W 001°11'816.4
2017-May-21 03:31N 50°43' W 000°59'510.4
2017-May-21 03:00N 50°38' W 000°59'612.1
2017-May-21 02:31N 50°32' W 001°02'713.9
2017-May-21 02:00N 50°30' W 001°13'2013.3
2017-May-21 00:32N 50°23' W 001°42'015.1
2017-May-21 00:30N 50°22' W 001°42'2014.2
2017-May-20 23:07N 50°12' W 002°09'515.4
2017-May-20 22:49N 50°08' W 002°10'1413.6
2017-May-20 21:48N 49°57' W 002°23'414.3
2017-May-20 21:30N 49°55' W 002°29'714.3
2017-May-20 21:00N 49°53' W 002°40'714.2
2017-May-20 20:31N 49°49' W 002°49'814.4
2017-May-20 19:58N 49°42' W 002°53'80 3.6
2017-May-19 22:03N 48°51' W 004°27'111.9
2017-May-19 21:59N 48°51' W 004°28'611.9
2017-May-19 21:30N 48°48' W 004°36'611.9
2017-May-19 20:58N 48°46' W 004°45'511.8
2017-May-19 20:30N 48°45' W 004°53'611.7
2017-May-19 20:00N 48°43' W 005°01'611.5
2017-May-19 19:30N 48°41' W 005°09'611.1
2017-May-19 18:59N 48°37' W 005°16'612.4
2017-May-19 18:30N 48°33' W 005°21'2011.3
2017-May-19 16:43N 48°13' W 005°27'8815.3
2017-May-19 11:00N 46°48' W 004°54'18614.3 270 / 251016.410.8 12.5 7.413.0
2017-May-18 22:00N 43°48' W 003°48'39 1.8 260 / 281020.210.8 13.8 7.515.0
2017-May-18 01:00N 44°12' W 003°06'11515.6 330 / 231017.710.8 14.213.116.0
2017-May-17 17:36N 45°55' W 001°55'215.0
2017-May-17 17:30N 45°57' W 001°54'815.0
2017-May-17 17:00N 46°04' W 001°48'713.8
2017-May-17 16:30N 46°08' W 001°41'715.0
2017-May-17 16:01N 46°07' W 001°31'714.7
2017-May-17 15:30N 46°06' W 001°20'4 8.5
2017-May-17 15:00N 46°09' W 001°15'1 1.0
2017-May-17 13:58N 46°10' W 001°14'0 0.0
2017-May-17 13:25N 46°10' W 001°14'0 0.0
2017-May-17 12:55N 46°10' W 001°14'0 0.0
2017-May-17 12:28N 46°10' W 001°14'0 0.0
2017-May-17 11:58N 46°10' W 001°14'0 0.0
2017-May-17 11:25N 46°10' W 001°14'0 0.0
2017-May-17 10:58N 46°10' W 001°14'0 0.0
2017-May-17 10:28N 46°10' W 001°14'0 0.0
2017-May-17 09:59N 46°10' W 001°14'0 0.0
2017-May-17 09:29N 46°10' W 001°14'0 0.0
2017-May-17 09:00N 46°10' W 001°14'0 0.0
2017-May-17 08:30N 46°10' W 001°14'  
Track history (hours):
 
Tides and Currents Weather Stations Pressure Air Temp Water Temp Dewpoint Dewpoint Depression Visibility Wind Speed Wind Dir Waves Ship Positions

Oriana (Bermuda)

Last reported at 2017-May-27 08:14 UTC. Time now 2017-May-28 12:18 UTC.
Position N 36°49' W 023°19'.

Length 261 m; beam 32.2 m; draft 8.2 m.

Type: Ship. MMSI: 310529000.

Date/timePositionNaut miles runAvg speedWind from/ knotsBaromVisibWave heightAir tempDewpointWater temp
2017-May-27 08:14N 36°49' W 023°19'417.9
2017-May-27 08:00N 36°52' W 023°23'918.1
2017-May-27 07:30N 36°57' W 023°32'816.3
2017-May-27 07:01N 37°03' W 023°40'714.6
2017-May-27 06:30N 37°07' W 023°47'815.1
2017-May-27 06:00N 37°12' W 023°54'815.1
2017-May-27 05:30N 37°17' W 024°01'714.9
2017-May-27 05:01N 37°22' W 024°09'815.0
2017-May-27 04:30N 37°27' W 024°16'815.1
2017-May-27 04:00N 37°32' W 024°23'713.6
2017-May-27 03:31N 37°36' W 024°30'815.6
2017-May-27 03:00N 37°41' W 024°37'815.7
2017-May-27 02:31N 37°46' W 024°45'815.7
2017-May-27 02:00N 37°51' W 024°53'815.9
2017-May-27 01:30N 37°56' W 025°01'815.7
2017-May-27 01:01N 37°60' W 025°09'815.8
2017-May-27 00:30N 38°04' W 025°18'816.0
2017-May-27 00:00N 38°07' W 025°27'816.0
2017-May-26 23:31N 38°11' W 025°36'816.2
2017-May-26 23:00N 38°15' W 025°45'815.6
2017-May-26 22:31N 38°18' W 025°54'815.9
2017-May-26 22:00N 38°22' W 026°03'715.0
2017-May-26 21:31N 38°25' W 026°12'714.9
2017-May-26 21:00N 38°28' W 026°20'714.9
2017-May-26 20:30N 38°32' W 026°29'815.0
2017-May-26 20:00N 38°35' W 026°37'815.4
2017-May-26 19:30N 38°39' W 026°46'714.7
2017-May-26 19:00N 38°42' W 026°55'612.6
2017-May-26 18:30N 38°43' W 027°02'1 0.2
2017-May-26 15:39N 38°43' W 027°03'0 0.0
2017-May-26 15:21N 38°43' W 027°03'0 0.0
2017-May-26 08:14N 38°43' W 027°03'0 0.9
2017-May-26 08:00N 38°43' W 027°03'5 9.1
2017-May-26 07:30N 38°43' W 026°57'612.5
2017-May-26 07:01N 38°38' W 026°54'713.2
2017-May-26 06:30N 38°32' W 026°49'611.4
2017-May-26 06:00N 38°28' W 026°44'510.5
2017-May-26 05:30N 38°24' W 026°40'510.8
2017-May-26 05:00N 38°19' W 026°36'510.4
2017-May-26 04:30N 38°15' W 026°32'510.0
2017-May-26 04:00N 38°11' W 026°29'510.5
2017-May-26 03:31N 38°07' W 026°25'611.3
2017-May-26 03:00N 38°02' W 026°21'511.0
2017-May-26 02:30N 37°58' W 026°17'611.1
2017-May-26 02:00N 37°53' W 026°13'510.9
2017-May-26 01:30N 37°49' W 026°09'611.7
2017-May-26 01:00N 37°46' W 026°02'611.7
2017-May-26 00:30N 37°44' W 025°55'510.9
2017-May-26 00:00N 37°42' W 025°49'510.3
2017-May-25 23:30N 37°40' W 025°43'5 9.1
2017-May-25 23:00N 37°43' W 025°39'1 2.5
2017-May-25 22:29N 37°44' W 025°40'0 0.0
2017-May-25 21:59N 37°44' W 025°40'0 0.0
2017-May-25 21:29N 37°44' W 025°40'0 0.0
2017-May-25 20:59N 37°44' W 025°40'0 0.0
2017-May-25 20:29N 37°44' W 025°40'0 0.0
2017-May-25 19:59N 37°44' W 025°40'0 0.0
2017-May-25 19:29N 37°44' W 025°40'0 0.0
2017-May-25 18:59N 37°44' W 025°40'0 0.0
2017-May-25 18:29N 37°44' W 025°40'0 0.0
2017-May-25 17:59N 37°44' W 025°40'0 0.0
2017-May-25 17:29N 37°44' W 025°40'0 0.0
2017-May-25 16:59N 37°44' W 025°40'0 0.0
2017-May-25 16:29N 37°44' W 025°40'0 0.0
2017-May-25 15:59N 37°44' W 025°40'0 0.0
2017-May-25 15:29N 37°44' W 025°40'0 0.0
2017-May-25 14:59N 37°44' W 025°40'0 0.0
2017-May-25 14:29N 37°44' W 025°40'0 0.0
2017-May-25 13:29N 37°44' W 025°40'0 0.0
2017-May-25 12:59N 37°44' W 025°40'0 0.0
2017-May-25 12:29N 37°44' W 025°40'0 0.0
2017-May-25 11:59N 37°44' W 025°40'0 0.0
2017-May-25 11:29N 37°44' W 025°40'0 0.0
2017-May-25 10:59N 37°44' W 025°40'0 0.0
2017-May-25 10:29N 37°44' W 025°40'0 0.0
2017-May-25 09:59N 37°44' W 025°40'0 0.0
2017-May-25 09:29N 37°44' W 025°40'0 0.0
2017-May-25 08:59N 37°44' W 025°40'0 0.4
2017-May-25 08:30N 37°44' W 025°39'2 3.2
2017-May-25 08:00N 37°43' W 025°39'4 9.0
2017-May-25 07:30N 37°40' W 025°34'612.2
2017-May-25 07:00N 37°40' W 025°27'612.6
2017-May-25 06:30N 37°40' W 025°19'612.2
2017-May-25 06:00N 37°40' W 025°11'611.4
2017-May-25 05:30N 37°44' W 025°05'611.6
2017-May-25 05:00N 37°47' W 024°59'611.8
2017-May-25 04:30N 37°51' W 024°54'611.7
2017-May-25 04:00N 37°55' W 024°48'611.7
2017-May-25 03:30N 37°58' W 024°42'611.5
2017-May-25 03:00N 38°02' W 024°36'611.9
2017-May-25 02:30N 38°06' W 024°31'611.7
2017-May-25 01:59N 38°10' W 024°25'612.0
2017-May-25 01:27N 38°14' W 024°18'512.0
2017-May-25 01:00N 38°17' W 024°13'8213.7
2017-May-24 19:00N 39°06' W 022°48'36915.4 260 / 111017.310.8 18.515.618.0
2017-May-23 19:00N 43°00' W 016°30'13719.6 100 / 51021.910.8 18.415.017.0
2017-May-23 12:00N 44°24' W 014°00'6315.7 080 / 91024.410.8 16.014.315.0
2017-May-23 08:00N 45°06' W 012°54'21215.2 100 / 51024.610.8 14.914.214.0
2017-May-22 18:00N 47°18' W 008°54'1156.4 220 / 111020.710.8 14.712.714.0
2017-May-22 17:48N 47°28' W 008°48'7915.1
2017-May-22 12:33N 48°18' W 007°17'2814.3
2017-May-22 10:35N 48°37' W 006°45'514.9
2017-May-22 10:14N 48°39' W 006°38'615.1
2017-May-22 09:49N 48°44' W 006°31'615.1
2017-May-22 09:26N 48°47' W 006°24'915.4
2017-May-22 08:49N 48°53' W 006°13'515.8
2017-May-22 08:30N 48°56' W 006°07'1015.8
2017-May-22 07:53N 49°02' W 005°54'1718.6
2017-May-22 07:00N 49°06' W 005°30'519.1 210 / 121013.410.8 14.412.213.0
2017-May-22 06:43N 49°11' W 005°29'2316.4
2017-May-22 05:19N 49°24' W 005°00'715.7
2017-May-22 04:53N 49°28' W 004°51'1115.5
2017-May-22 04:11N 49°33' W 004°37'515.2
2017-May-22 03:53N 49°36' W 004°31'615.0
2017-May-22 03:30N 49°39' W 004°24'814.9
2017-May-22 03:00N 49°42' W 004°13'191.7
2017-May-22 03:00N 49°42' W 004°12'713.7 120 / 301013.810.8 14.412.213.0
2017-May-22 02:28N 49°46' W 004°03'714.7
2017-May-22 02:00N 49°49' W 003°54'714.8
2017-May-22 01:30N 49°53' W 003°44'815.1
2017-May-22 01:00N 49°57' W 003°34'815.5
2017-May-22 00:30N 50°01' W 003°23'816.0
2017-May-22 00:00N 50°04' W 003°12'816.5
2017-May-21 23:30N 50°07' W 002°60'817.0
2017-May-21 23:00N 50°09' W 002°47'917.3
2017-May-21 22:31N 50°13' W 002°35'917.7
2017-May-21 22:00N 50°16' W 002°22'917.9
2017-May-21 21:30N 50°18' W 002°08'917.7
2017-May-21 21:00N 50°20' W 001°55'917.4
2017-May-21 20:30N 50°23' W 001°42'816.9
2017-May-21 20:00N 50°26' W 001°29'816.4
2017-May-21 19:30N 50°28' W 001°17'815.8
2017-May-21 19:00N 50°31' W 001°05'7533.7
2017-May-21 19:00N 50°30' W 000°54'714.7 080 / 281019.810.8 14.710.513.0
2017-May-21 18:31N 50°36' W 000°59'612.1
2017-May-21 18:00N 50°42' W 000°59'612.6
2017-May-21 17:30N 50°45' W 001°07'715.0
2017-May-21 17:00N 50°47' W 001°19'4 8.0
2017-May-21 16:30N 50°51' W 001°21'4 8.3
2017-May-21 16:00N 50°54' W 001°26'0 0.2
2017-May-21 15:28N 50°54' W 001°26'0 0.0
2017-May-21 14:58N 50°54' W 001°26'0 0.0
2017-May-21 14:28N 50°54' W 001°26'0 0.0
2017-May-21 13:28N 50°54' W 001°26'0 0.0
2017-May-21 12:58N 50°54' W 001°26'0 0.0
2017-May-21 12:28N 50°54' W 001°26'0 0.0
2017-May-21 11:58N 50°54' W 001°26'0 0.0
2017-May-21 11:28N 50°54' W 001°26'0 0.0
2017-May-21 10:58N 50°54' W 001°26'0 0.0
2017-May-21 10:29N 50°54' W 001°26'0 0.0
2017-May-21 09:59N 50°54' W 001°26'0 0.0
2017-May-21 09:29N 50°54' W 001°26'0 0.0
2017-May-21 08:56N 50°54' W 001°26'0 0.0
2017-May-21 08:26N 50°54' W 001°26'0 0.0
2017-May-21 07:59N 50°54' W 001°26'0 0.0
2017-May-21 07:29N 50°54' W 001°26'0 0.0
2017-May-21 06:59N 50°54' W 001°26'0 0.0
2017-May-21 06:26N 50°54' W 001°26'0 0.0
2017-May-21 06:00N 50°54' W 001°26'0 0.6
2017-May-21 05:30N 50°54' W 001°26'3 6.0
2017-May-21 05:01N 50°52' W 001°23'5 9.8
2017-May-21 04:31N 50°49' W 001°17'510.3
2017-May-21 04:01N 50°46' W 001°11'816.4
2017-May-21 03:31N 50°43' W 000°59'510.4
2017-May-21 03:00N 50°38' W 000°59'612.1
2017-May-21 02:31N 50°32' W 001°02'713.9
2017-May-21 02:00N 50°30' W 001°13'2013.3
2017-May-21 00:32N 50°23' W 001°42'015.1
2017-May-21 00:30N 50°22' W 001°42'2014.2
2017-May-20 23:07N 50°12' W 002°09'515.4
2017-May-20 22:49N 50°08' W 002°10'1413.6
2017-May-20 21:48N 49°57' W 002°23'414.3
2017-May-20 21:30N 49°55' W 002°29'714.3
2017-May-20 21:00N 49°53' W 002°40'714.2
2017-May-20 20:31N 49°49' W 002°49'814.4
2017-May-20 19:58N 49°42' W 002°53'80 3.6
2017-May-19 22:03N 48°51' W 004°27'111.9
2017-May-19 21:59N 48°51' W 004°28'611.9
2017-May-19 21:30N 48°48' W 004°36'611.9
2017-May-19 20:58N 48°46' W 004°45'511.8
2017-May-19 20:30N 48°45' W 004°53'611.7
2017-May-19 20:00N 48°43' W 005°01'611.5
2017-May-19 19:30N 48°41' W 005°09'611.1
2017-May-19 18:59N 48°37' W 005°16'612.4
2017-May-19 18:30N 48°33' W 005°21'2011.3
2017-May-19 16:43N 48°13' W 005°27'8815.3
2017-May-19 11:00N 46°48' W 004°54'18614.3 270 / 251016.410.8 12.5 7.413.0
2017-May-18 22:00N 43°48' W 003°48'39 1.8 260 / 281020.210.8 13.8 7.515.0
2017-May-18 01:00N 44°12' W 003°06'11515.6 330 / 231017.710.8 14.213.116.0
2017-May-17 17:36N 45°55' W 001°55'215.0
2017-May-17 17:30N 45°57' W 001°54'815.0
2017-May-17 17:00N 46°04' W 001°48'713.8
2017-May-17 16:30N 46°08' W 001°41'715.0
2017-May-17 16:01N 46°07' W 001°31'714.7
2017-May-17 15:30N 46°06' W 001°20'4 8.5
2017-May-17 15:00N 46°09' W 001°15'1 1.0
2017-May-17 13:58N 46°10' W 001°14'0 0.0
2017-May-17 13:25N 46°10' W 001°14'0 0.0
2017-May-17 12:55N 46°10' W 001°14'0 0.0
2017-May-17 12:28N 46°10' W 001°14'0 0.0
2017-May-17 11:58N 46°10' W 001°14'0 0.0
2017-May-17 11:25N 46°10' W 001°14'0 0.0
2017-May-17 10:58N 46°10' W 001°14'0 0.0
2017-May-17 10:28N 46°10' W 001°14'0 0.0
2017-May-17 09:59N 46°10' W 001°14'0 0.0
2017-May-17 09:29N 46°10' W 001°14'0 0.0
2017-May-17 09:00N 46°10' W 001°14'0 0.0
2017-May-17 08:30N 46°10' W 001°14'  

Dump ship's entire track history